Time;durP1;ratioP1;P1;durP2;ratioP2;P2;SDS_P1;SDS_P2;PMS_P1;PMS_P2;Temp;Humidity;BMP_temperature;BMP_pressure;BME280_temperature;BME280_humidity;BME280_pressure;Samples;Min_cycle;Max_cycle;Signal;HPM_P1;HPM_P2
2022/04/25 00:01:15;;;;;;;;;;;;;;;19.99;40.31;97988.84;4483075;32;33812;-84
2022/04/25 00:03:43;;;;;;;;;;;;;;;20.04;40.10;98000.88;4478843;32;32911;-84
2022/04/25 00:06:11;;;;;;;;;;;;;;;20.08;39.95;97991.06;4480463;32;35045;-84
2022/04/25 00:08:38;;;;;;;;;;;;;;;20.09;39.85;97993.62;4480899;32;33834;-84
2022/04/25 00:11:06;;;;;;;;;;;;;;;19.96;39.96;97991.59;4469097;32;34696;-84
2022/04/25 00:13:33;;;;;;;;;;;;;;;19.88;40.20;97994.56;4469307;32;33443;-83
2022/04/25 00:16:00;;;;;;;;;;;;;;;19.83;40.36;97996.53;4469548;32;34587;-84
2022/04/25 00:18:28;;;;;;;;;;;;;;;19.86;40.45;97994.63;4483577;32;33998;-84
2022/04/25 00:20:55;;;;;;;;;;;;;;;19.82;40.41;97992.22;4483191;32;34948;-84
2022/04/25 00:23:23;;;;;;;;;;;;;;;19.82;40.38;97982.53;4465173;32;33455;-83
2022/04/25 00:25:50;;;;;;;;;;;;;;;19.90;39.94;97983.06;4482405;32;33922;-84
2022/04/25 00:28:17;;;;;;;;;;;;;;;19.81;40.06;97979.97;4483286;32;33857;-84
2022/04/25 00:30:47;;;;;;;;;;;;;;;19.87;39.94;97979.72;4483205;32;34147;-84
2022/04/25 00:33:17;;;;;;;;;;;;;;;19.81;39.83;97978.22;4483322;32;33479;-84
2022/04/25 00:35:44;;;;;;;;;;;;;;;19.62;40.24;97972.91;4482766;32;34342;-83
2022/04/25 00:38:11;;;;;;;;;;;;;;;19.70;40.02;97975.19;4483324;32;35263;-84
2022/04/25 00:40:39;;;;;;;;;;;;;;;19.67;39.86;97978.81;4478686;32;34508;-84
2022/04/25 00:43:06;;;;;;;;;;;;;;;19.79;39.59;97980.03;4479315;32;33192;-84
2022/04/25 00:45:34;;;;;;;;;;;;;;;19.74;39.71;97973.28;4482715;32;34217;-84
2022/04/25 00:48:01;;;;;;;;;;;;;;;19.56;39.94;97983.63;4483062;32;34052;-84
2022/04/25 00:50:29;;;;;;;;;;;;;;;19.61;39.99;97983.44;4482561;32;34897;-84
2022/04/25 00:52:56;;;;;;;;;;;;;;;19.50;40.36;97977.75;4468635;32;33543;-83
2022/04/25 00:55:23;;;;;;;;;;;;;;;19.51;40.37;97985.59;4468592;32;34943;-83
2022/04/25 00:57:51;;;;;;;;;;;;;;;19.56;40.30;97985.41;4468939;32;34409;-84
2022/04/25 01:00:19;;;;;;;;;;;;;;;19.46;40.54;97982.28;4467641;32;33982;-84
2022/04/25 01:02:46;;;;;;;;;;;;;;;19.55;40.50;97983.69;4467514;32;33729;-84
2022/04/25 01:05:14;;;;;;;;;;;;;;;19.39;40.75;97989.56;4479197;32;34146;-84
2022/04/25 01:07:41;;;;;;;;;;;;;;;19.36;41.06;97992.34;4483441;32;35250;-85
2022/04/25 01:10:09;;;;;;;;;;;;;;;19.42;40.96;97994.72;4482458;32;34761;-84
2022/04/25 01:12:37;;;;;;;;;;;;;;;19.40;41.11;97996.56;4468869;32;33081;-84
2022/04/25 01:15:08;;;;;;;;;;;;;;;19.51;41.20;97995.25;4468675;32;34282;-84
2022/04/25 01:17:35;;;;;;;;;;;;;;;19.57;41.15;98001.09;4468833;32;33860;-84
2022/04/25 01:20:03;;;;;;;;;;;;;;;19.52;41.42;97994.34;4467869;32;34054;-83
2022/04/25 01:22:32;;;;;;;;;;;;;;;19.55;41.46;97997.69;4482420;32;33771;-83
2022/04/25 01:27:46;;;;;;;;;;;;;;;19.55;41.72;98007.38;4483522;32;34717;-84
2022/04/25 01:30:14;;;;;;;;;;;;;;;19.58;41.76;98007.22;4482439;32;34154;-84
2022/04/25 01:32:41;;;;;;;;;;;;;;;19.54;41.97;98005.63;4482867;32;33559;-84
2022/04/25 01:35:09;;;;;;;;;;;;;;;19.78;41.53;97996.75;4471210;32;35037;-84
2022/04/25 01:37:36;;;;;;;;;;;;;;;19.65;41.93;97999.03;4482202;32;34488;-84
2022/04/25 01:40:03;;;;;;;;;;;;;;;19.77;41.70;97992.38;4481425;32;33953;-84
2022/04/25 01:42:31;;;;;;;;;;;;;;;19.79;41.64;97990.56;4483087;32;33513;-83
2022/04/25 01:44:58;;;;;;;;;;;;;;;19.66;41.98;97982.34;4481594;32;34552;-84
2022/04/25 01:47:27;;;;;;;;;;;;;;;19.73;41.95;97985.56;4482710;32;34031;-84
2022/04/25 01:49:54;;;;;;;;;;;;;;;19.75;41.82;97988.13;4475331;32;33857;-84
2022/04/25 01:52:31;;;;;;;;;;;;;;;19.81;41.66;97996.63;4478839;31;33317;-84
2022/04/25 01:54:59;;;;;;;;;;;;;;;19.85;41.70;97985.03;4482560;32;36861;-83
2022/04/25 01:57:27;;;;;;;;;;;;;;;19.88;41.64;97984.88;4482707;32;34086;-84
2022/04/25 01:59:54;;;;;;;;;;;;;;;19.93;41.59;97984.72;4482023;32;34842;-84
2022/04/25 02:02:25;;;;;;;;;;;;;;;19.75;41.99;97983.72;4472933;32;34302;-84
2022/04/25 02:04:53;;;;;;;;;;;;;;;19.57;42.49;97982.69;4481702;32;34854;-84
2022/04/25 02:07:21;;;;;;;;;;;;;;;19.78;42.04;97983.59;4468439;32;34600;-84
2022/04/25 02:09:48;;;;;;;;;;;;;;;19.74;42.01;97976.78;4482440;32;34918;-84
2022/04/25 02:12:15;;;;;;;;;;;;;;;19.48;42.57;97985.72;4468313;32;33288;-84
2022/04/25 02:14:43;;;;;;;;;;;;;;;19.12;43.37;97974.94;4482501;32;34312;-82
2022/04/25 02:17:12;;;;;;;;;;;;;;;19.19;43.12;97969.38;4482918;32;34389;-84
2022/04/25 02:19:40;;;;;;;;;;;;;;;19.19;43.14;97965.91;4481696;32;34237;-84
2022/04/25 02:22:08;;;;;;;;;;;;;;;19.22;43.05;97971.03;4468011;32;33445;-83
2022/04/25 02:24:36;;;;;;;;;;;;;;;19.40;42.64;97972.91;4467943;32;35682;-83
2022/04/25 02:27:04;;;;;;;;;;;;;;;19.24;42.37;97963.09;4482524;32;34540;-84
2022/04/25 02:29:32;;;;;;;;;;;;;;;19.10;42.87;97966.28;4482062;32;35091;-84
2022/04/25 02:31:59;;;;;;;;;;;;;;;18.99;43.41;97966.72;4468226;32;33109;-84
2022/04/25 02:34:28;;;;;;;;;;;;;;;18.57;44.23;97980.59;4466493;32;33905;-84
2022/04/25 02:36:55;;;;;;;;;;;;;;;18.42;43.37;97984.66;4482407;32;34230;-84
2022/04/25 02:39:23;;;;;;;;;;;;;;;18.88;40.98;97982.91;4482365;32;35163;-85
2022/04/25 02:41:51;;;;;;;;;;;;;;;18.64;42.34;97989.09;4481863;32;33432;-84
2022/04/25 02:44:20;;;;;;;;;;;;;;;18.55;44.04;97992.91;4481292;32;34158;-84
2022/04/25 02:46:47;;;;;;;;;;;;;;;19.03;42.89;97993.72;4482443;32;34149;-85
2022/04/25 02:49:14;;;;;;;;;;;;;;;18.75;42.57;97992.16;4481546;32;34311;-84
2022/04/25 02:51:44;;;;;;;;;;;;;;;19.05;42.45;97997.13;4481914;32;33291;-83
2022/04/25 02:54:11;;;;;;;;;;;;;;;18.74;43.38;98006.22;4482014;32;33468;-85
2022/04/25 02:56:38;;;;;;;;;;;;;;;18.75;43.00;98017.56;4482113;32;33888;-85
2022/04/25 02:59:07;;;;;;;;;;;;;;;18.83;42.62;98019.00;4481507;32;34251;-84
2022/04/25 03:01:34;;;;;;;;;;;;;;;18.67;42.47;98018.69;4479573;32;33482;-84
2022/04/25 03:04:02;;;;;;;;;;;;;;;19.01;41.84;98025.28;4476146;32;35161;-84
2022/04/25 03:06:29;;;;;;;;;;;;;;;19.29;42.04;98026.84;4481177;32;35277;-84
2022/04/25 03:08:56;;;;;;;;;;;;;;;19.45;41.97;98036.66;4482124;32;34361;-84
2022/04/25 03:11:25;;;;;;;;;;;;;;;19.36;42.41;98038.81;4481466;32;32999;-84
2022/04/25 03:13:55;;;;;;;;;;;;;;;18.65;42.20;98044.16;4467118;32;33931;-84
2022/04/25 03:16:23;;;;;;;;;;;;;;;19.17;41.86;98041.31;4481043;32;35190;-84
2022/04/25 03:18:50;;;;;;;;;;;;;;;19.52;40.69;98033.78;4482129;32;34309;-83
2022/04/25 03:21:18;;;;;;;;;;;;;;;19.02;41.50;98048.03;4475773;32;33345;-84
2022/04/25 03:23:45;;;;;;;;;;;;;;;18.83;41.83;98045.28;4477782;32;35138;-83
2022/04/25 03:26:13;;;;;;;;;;;;;;;19.12;40.73;98045.88;4480763;32;33765;-84
2022/04/25 03:28:40;;;;;;;;;;;;;;;19.25;40.77;98041.87;4481781;32;33868;-84
2022/04/25 03:31:07;;;;;;;;;;;;;;;19.33;40.45;98039.78;4481188;32;33179;-84
2022/04/25 03:33:35;;;;;;;;;;;;;;;19.51;40.68;98039.94;4480811;32;33929;-84
2022/04/25 03:36:03;;;;;;;;;;;;;;;19.67;40.49;98043.69;4478234;32;35221;-84
2022/04/25 03:38:30;;;;;;;;;;;;;;;19.58;41.65;98041.38;4481801;32;35043;-85
2022/04/25 03:40:59;;;;;;;;;;;;;;;19.55;41.42;98041.53;4481306;32;33842;-85
2022/04/25 03:43:33;;;;;;;;;;;;;;;19.75;41.17;98046.00;4467110;32;34970;-84
2022/04/25 03:46:01;;;;;;;;;;;;;;;19.47;42.05;98040.97;4467892;32;35294;-84
2022/04/25 03:48:29;;;;;;;;;;;;;;;19.24;42.14;98044.53;4483938;32;34322;-85
2022/04/25 03:50:56;;;;;;;;;;;;;;;19.27;42.37;98034.75;4483395;32;33511;-85
2022/04/25 03:53:23;;;;;;;;;;;;;;;19.16;42.99;98036.97;4482682;32;33909;-85
2022/04/25 03:58:37;;;;;;;;;;;;;;;19.01;43.27;98034.94;4483720;32;34230;-85
2022/04/25 04:01:04;;;;;;;;;;;;;;;19.16;42.10;98043.06;4483319;32;33503;-84
2022/04/25 04:03:34;;;;;;;;;;;;;;;19.15;42.52;98038.75;4483595;32;34239;-84
2022/04/25 04:06:02;;;;;;;;;;;;;;;19.38;41.68;98042.22;4469125;32;33897;-83
2022/04/25 04:08:29;;;;;;;;;;;;;;;19.19;42.88;98042.94;4483107;32;34019;-84
2022/04/25 04:10:57;;;;;;;;;;;;;;;19.06;42.83;98040.91;4469193;32;34139;-84
2022/04/25 04:13:25;;;;;;;;;;;;;;;19.05;43.12;98047.03;4481846;32;34174;-85
2022/04/25 04:15:53;;;;;;;;;;;;;;;18.81;43.64;98051.47;4468074;32;34332;-85
2022/04/25 04:18:23;;;;;;;;;;;;;;;18.85;43.64;98056.56;4483609;32;34020;-85
2022/04/25 04:20:50;;;;;;;;;;;;;;;19.40;42.42;98051.75;4482834;32;33512;-83
2022/04/25 04:23:17;;;;;;;;;;;;;;;19.12;43.03;98056.41;4483826;32;34978;-85
2022/04/25 04:25:45;;;;;;;;;;;;;;;19.12;42.95;98053.75;4476374;32;35327;-83
2022/04/25 04:28:12;;;;;;;;;;;;;;;19.04;43.26;98055.84;4479134;32;32492;-84
2022/04/25 04:30:39;;;;;;;;;;;;;;;19.41;42.42;98056.09;4480909;32;34330;-85
2022/04/25 04:33:08;;;;;;;;;;;;;;;19.54;42.03;98055.56;4481187;32;35142;-84
2022/04/25 04:38:21;;;;;;;;;;;;;;;19.42;41.92;98062.19;4483282;32;34426;-84
2022/04/25 04:40:48;;;;;;;;;;;;;;;19.36;42.08;98071.19;4475584;32;33591;-83
2022/04/25 04:43:16;;;;;;;;;;;;;;;19.22;42.14;98064.78;4477684;32;34092;-83
2022/04/25 04:45:44;;;;;;;;;;;;;;;19.28;41.91;98068.03;4477190;32;34169;-83
2022/04/25 04:48:11;;;;;;;;;;;;;;;19.46;41.54;98071.66;4481682;32;34112;-83
2022/04/25 04:50:39;;;;;;;;;;;;;;;19.40;41.85;98066.69;4480518;32;34605;-83
2022/04/25 04:53:07;;;;;;;;;;;;;;;19.60;41.70;98071.97;4475632;32;34036;-83
2022/04/25 04:55:36;;;;;;;;;;;;;;;19.72;41.71;98072.41;4478622;32;35331;-82
2022/04/25 04:58:03;;;;;;;;;;;;;;;19.70;41.85;98077.75;4482467;32;33974;-84
2022/04/25 05:00:31;;;;;;;;;;;;;;;19.70;41.92;98075.13;4482916;32;33252;-85
2022/04/25 05:02:58;;;;;;;;;;;;;;;19.25;43.05;98080.44;4460418;32;33792;-83
2022/04/25 05:05:27;;;;;;;;;;;;;;;19.75;42.09;98081.03;4480339;32;33716;-82
2022/04/25 05:07:54;;;;;;;;;;;;;;;19.60;42.04;98079.00;4482977;32;34091;-83
2022/04/25 05:10:21;;;;;;;;;;;;;;;19.52;42.94;98086.34;4468835;32;33128;-83
2022/04/25 05:12:54;;;;;;;;;;;;;;;20.09;39.75;98082.22;4483622;32;33661;-84
2022/04/25 05:15:22;;;;;;;;;;;;;;;19.67;40.31;98078.72;4483039;32;34287;-84
2022/04/25 05:17:50;;;;;;;;;;;;;;;19.59;40.45;98082.56;4483416;31;34939;-83
2022/04/25 05:20:18;;;;;;;;;;;;;;;19.97;40.46;98088.03;4469666;32;32884;-84
2022/04/25 05:22:46;;;;;;;;;;;;;;;19.55;40.50;98089.72;4469205;32;34213;-84
2022/04/25 05:25:14;;;;;;;;;;;;;;;19.74;40.19;98095.09;4468875;32;35315;-84
2022/04/25 05:27:42;;;;;;;;;;;;;;;20.06;38.99;98095.50;4483291;32;34360;-84
2022/04/25 05:30:10;;;;;;;;;;;;;;;20.28;38.86;98093.66;4483517;32;34539;-84
2022/04/25 05:32:44;;;;;;;;;;;;;;;20.06;39.09;98098.16;4483520;32;33938;-84
2022/04/25 05:35:12;;;;;;;;;;;;;;;19.48;40.53;98095.28;4483623;32;34359;-84
2022/04/25 05:37:39;;;;;;;;;;;;;;;19.48;40.00;98095.28;4483391;32;34462;-84
2022/04/25 05:40:06;;;;;;;;;;;;;;;19.40;40.63;98093.81;4483490;32;34090;-84
2022/04/25 05:42:34;;;;;;;;;;;;;;;19.60;40.49;98098.25;4483508;32;33665;-84
2022/04/25 05:45:01;;;;;;;;;;;;;;;18.54;42.45;98100.59;4483287;32;34347;-84
2022/04/25 05:47:29;;;;;;;;;;;;;;;18.14;44.01;98107.25;4469080;32;34560;-84
2022/04/25 05:52:43;;;;;;;;;;;;;;;19.09;41.77;98101.16;4483324;32;34272;-84
2022/04/25 05:55:10;;;;;;;;;;;;;;;19.56;40.90;98108.97;4469378;32;35234;-84
2022/04/25 05:57:37;;;;;;;;;;;;;;;19.38;41.62;98106.16;4483517;32;33441;-84
2022/04/25 06:00:05;;;;;;;;;;;;;;;19.29;41.92;98106.53;4483415;32;33509;-84
2022/04/25 06:02:39;;;;;;;;;;;;;;;18.62;42.96;98103.78;4483235;32;34898;-84
2022/04/25 06:05:09;;;;;;;;;;;;;;;19.00;42.10;98102.38;4483183;32;34813;-84
2022/04/25 06:07:37;;;;;;;;;;;;;;;19.14;41.94;98104.50;4468659;32;34289;-83
2022/04/25 06:10:05;;;;;;;;;;;;;;;18.30;43.80;98108.44;4483099;32;33417;-84
2022/04/25 06:12:32;;;;;;;;;;;;;;;18.89;43.39;98110.66;4483176;32;35092;-84
2022/04/25 06:15:05;;;;;;;;;;;;;;;19.14;42.12;98107.12;4482943;32;34371;-84
2022/04/25 06:17:32;;;;;;;;;;;;;;;18.95;43.06;98102.56;4482965;32;33799;-84
2022/04/25 06:19:59;;;;;;;;;;;;;;;19.07;41.95;98111.75;4483506;32;34549;-83
2022/04/25 06:22:26;;;;;;;;;;;;;;;19.27;41.60;98103.09;4483082;32;34637;-84
2022/04/25 06:24:54;;;;;;;;;;;;;;;18.61;42.59;98102.94;4483250;32;34345;-84
2022/04/25 06:27:21;;;;;;;;;;;;;;;19.13;42.50;98102.75;4483142;32;35110;-84
2022/04/25 06:29:48;;;;;;;;;;;;;;;18.88;42.77;98106.34;4483015;32;33510;-84
2022/04/25 06:32:16;;;;;;;;;;;;;;;19.06;41.97;98101.31;4482801;32;34326;-84
2022/04/25 06:34:43;;;;;;;;;;;;;;;18.88;42.56;98106.34;4468836;32;35293;-84
2022/04/25 06:37:10;;;;;;;;;;;;;;;18.76;43.48;98114.69;4483140;32;34795;-84
2022/04/25 06:39:37;;;;;;;;;;;;;;;18.69;43.04;98105.28;4482813;32;32969;-84
2022/04/25 06:42:05;;;;;;;;;;;;;;;18.71;42.01;98113.97;4483024;32;33979;-84
2022/04/25 06:44:32;;;;;;;;;;;;;;;18.05;43.38;98112.81;4482818;32;35203;-84
2022/04/25 06:46:59;;;;;;;;;;;;;;;18.85;42.54;98122.19;4482582;32;34208;-84
2022/04/25 06:49:27;;;;;;;;;;;;;;;18.95;42.36;98115.69;4482601;32;33537;-84
2022/04/25 06:51:56;;;;;;;;;;;;;;;19.27;41.61;98126.72;4482462;32;34089;-83
2022/04/25 06:54:24;;;;;;;;;;;;;;;18.19;43.48;98126.31;4482393;32;34946;-83
2022/04/25 06:56:52;;;;;;;;;;;;;;;18.87;42.85;98128.28;4482632;32;34010;-84
2022/04/25 06:59:20;;;;;;;;;;;;;;;19.54;41.94;98118.66;4482450;32;34230;-84
2022/04/25 07:01:47;;;;;;;;;;;;;;;19.15;41.11;98129.84;4482285;32;35055;-84
2022/04/25 07:04:16;;;;;;;;;;;;;;;19.19;43.12;98137.53;4482516;32;34981;-84
2022/04/25 07:06:44;;;;;;;;;;;;;;;20.46;39.61;98130.66;4482302;32;34370;-84
2022/04/25 07:09:17;;;;;;;;;;;;;;;19.99;39.58;98125.63;4482213;32;33624;-84
2022/04/25 07:11:44;;;;;;;;;;;;;;;20.58;39.44;98132.78;4482292;32;34926;-84
2022/04/25 07:14:19;;;;;;;;;;;;;;;19.66;39.67;98139.25;4482254;32;34884;-84
2022/04/25 07:16:51;;;;;;;;;;;;;;;20.51;39.20;98147.13;4482250;32;34255;-84
2022/04/25 07:19:21;;;;;;;;;;;;;;;21.06;38.17;98144.62;4468961;32;33597;-84
2022/04/25 07:30:07;;;;;;;;;;;;;;;19.89;40.01;98148.84;4484303;31;34219;-84
2022/04/25 07:32:39;;;;;;;;;;;;;;;21.05;37.97;98140.31;4484334;32;33536;-84
2022/04/25 07:35:07;;;;;;;;;;;;;;;19.28;40.85;98154.75;4484491;32;35112;-84
2022/04/25 07:37:35;;;;;;;;;;;;;;;20.45;38.23;98144.72;4470094;32;34141;-84
2022/04/25 07:40:02;;;;;;;;;;;;;;;20.28;38.80;98145.47;4484322;32;34288;-84
2022/04/25 07:42:31;;;;;;;;;;;;;;;20.41;38.91;98150.09;4470192;32;34371;-84
2022/04/25 07:44:59;;;;;;;;;;;;;;;21.55;36.54;98140.56;4484082;32;33914;-84
2022/04/25 07:47:26;;;;;;;;;;;;;;;20.93;37.29;98154.91;4484218;32;34508;-84
2022/04/25 07:49:53;;;;;;;;;;;;;;;21.14;37.83;98153.06;4483848;32;34251;-84
2022/04/25 07:52:20;;;;;;;;;;;;;;;21.00;37.14;98160.75;4484029;32;34998;-84
2022/04/25 07:54:48;;;;;;;;;;;;;;;21.03;37.24;98160.62;4469909;32;34363;-84
2022/04/25 07:57:15;;;;;;;;;;;;;;;21.61;35.66;98152.62;4484034;32;35110;-84
2022/04/25 07:59:42;;;;;;;;;;;;;;;21.76;35.15;98161.59;4484141;32;33333;-84
2022/04/25 08:02:10;;;;;;;;;;;;;;;21.82;35.52;98159.50;4484161;32;33853;-84
2022/04/25 08:04:37;;;;;;;;;;;;;;;21.73;36.21;98157.31;4484061;32;34127;-84
2022/04/25 08:07:05;;;;;;;;;;;;;;;21.53;35.76;98154.78;4483845;32;34040;-84
2022/04/25 08:09:33;;;;;;;;;;;;;;;22.03;36.56;98149.66;4484273;32;33457;-84
2022/04/25 08:20:19;;;;;;;;;;;;;;;21.38;35.75;98151.94;4484017;32;34058;-84
2022/04/25 08:22:46;;;;;;;;;;;;;;;20.72;36.99;98156.72;4483688;31;34355;-84
2022/04/25 08:25:15;;;;;;;;;;;;;;;21.21;35.08;98151.84;4469771;32;33739;-84
2022/04/25 08:27:42;;;;;;;;;;;;;;;22.40;32.61;98152.28;4483946;32;34098;-84
2022/04/25 08:30:12;;;;;;;;;;;;;;;21.94;32.86;98152.78;4483777;32;34323;-84
2022/04/25 08:32:39;;;;;;;;;;;;;;;22.11;34.17;98146.66;4483924;32;33913;-83
2022/04/25 08:35:09;;;;;;;;;;;;;;;20.73;36.02;98166.34;4483857;31;34243;-84
2022/04/25 08:37:36;;;;;;;;;;;;;;;21.12;35.35;98166.31;4483723;32;34016;-84
2022/04/25 08:40:04;;;;;;;;;;;;;;;21.63;34.66;98166.63;4483855;32;34056;-83
2022/04/25 08:42:31;;;;;;;;;;;;;;;21.91;36.06;98173.19;4483825;32;34110;-84
2022/04/25 08:45:15;;;;;;;;;;;;;;;21.49;35.49;98185.72;4483875;32;34624;-84
2022/04/25 08:47:45;;;;;;;;;;;;;;;20.31;37.44;98180.41;4469603;32;34811;-84
2022/04/25 08:50:12;;;;;;;;;;;;;;;20.13;38.21;98189.06;4469317;32;33714;-84
2022/04/25 08:52:40;;;;;;;;;;;;;;;20.36;37.42;98185.47;4483753;32;34272;-84
2022/04/25 08:55:08;;;;;;;;;;;;;;;21.33;35.41;98182.94;4469603;32;34817;-84
2022/04/25 08:57:35;;;;;;;;;;;;;;;20.67;37.47;98189.44;4469533;32;34432;-84
2022/04/25 09:00:04;;;;;;;;;;;;;;;19.96;39.15;98192.38;4469906;32;33574;-84
2022/04/25 09:02:33;;;;;;;;;;;;;;;19.97;38.45;98191.47;4483585;32;34303;-84
2022/04/25 09:05:01;;;;;;;;;;;;;;;20.87;36.82;98194.66;4483726;32;34637;-84
2022/04/25 09:07:28;;;;;;;;;;;;;;;21.41;34.81;98192.28;4483670;32;34061;-84
2022/04/25 09:09:55;;;;;;;;;;;;;;;20.46;37.30;98192.06;4483918;32;33563;-84
2022/04/25 09:12:23;;;;;;;;;;;;;;;21.34;35.62;98197.00;4483408;31;35041;-84
2022/04/25 09:14:51;;;;;;;;;;;;;;;22.46;33.50;98191.56;4469510;32;34319;-84
2022/04/25 09:17:38;;;;;;;;;;;;;;;21.30;34.96;98190.97;4471339;32;34091;-84
2022/04/25 09:20:07;;;;;;;;;;;;;;;21.16;35.59;98197.78;4483558;32;34236;-84
2022/04/25 09:22:39;;;;;;;;;;;;;;;20.73;36.37;98199.72;4483542;32;34006;-84
2022/04/25 09:25:08;;;;;;;;;;;;;;;21.97;34.06;98188.69;4469292;32;34527;-84
2022/04/25 09:28:10;;;;;;;;;;;;;;;21.61;34.00;98208.03;4471592;32;34602;-84
2022/04/25 09:30:38;;;;;;;;;;;;;;;20.69;35.74;98206.03;4483385;32;33510;-84
2022/04/25 09:33:26;;;;;;;;;;;;;;;21.23;35.32;98215.91;4484108;32;34290;-84
2022/04/25 09:35:54;;;;;;;;;;;;;;;20.91;35.42;98214.72;4483607;31;33944;-84
2022/04/25 09:38:31;;;;;;;;;;;;;;;21.11;34.39;98217.31;4483485;32;34397;-84
2022/04/25 09:40:59;;;;;;;;;;;;;;;20.98;35.31;98212.66;4469511;32;33256;-84
2022/04/25 09:43:29;;;;;;;;;;;;;;;19.97;36.79;98214.31;4468701;32;35070;-83
2022/04/25 09:46:00;;;;;;;;;;;;;;;20.91;36.22;98214.72;4483179;32;34814;-84
2022/04/25 09:48:28;;;;;;;;;;;;;;;22.07;34.92;98216.34;4469309;32;34129;-84
2022/04/25 09:51:02;;;;;;;;;;;;;;;21.33;35.22;98222.50;4483478;32;33321;-84
2022/04/25 09:53:52;;;;;;;;;;;;;;;21.45;35.63;98220.22;4483660;32;33645;-83
2022/04/25 09:56:20;;;;;;;;;;;;;;;21.59;34.09;98233.59;4483358;31;34453;-84
2022/04/25 09:58:59;;;;;;;;;;;;;;;20.93;36.63;98227.81;4469291;32;33788;-84
2022/04/25 10:01:29;;;;;;;;;;;;;;;21.13;34.51;98233.03;4483322;32;33465;-85
2022/04/25 10:03:57;;;;;;;;;;;;;;;21.96;33.91;98224.78;4469041;32;34502;-84
2022/04/25 10:06:24;;;;;;;;;;;;;;;22.48;32.87;98221.41;4468970;32;34097;-84
2022/04/25 10:08:52;;;;;;;;;;;;;;;22.20;34.45;98227.19;4483082;32;33588;-84
2022/04/25 10:11:19;;;;;;;;;;;;;;;21.77;34.83;98238.00;4483103;32;33122;-84
2022/04/25 10:13:47;;;;;;;;;;;;;;;22.21;33.75;98232.41;4483301;32;34391;-84
2022/04/25 10:16:18;;;;;;;;;;;;;;;21.93;33.34;98230.22;4469030;32;35043;-84
2022/04/25 10:18:46;;;;;;;;;;;;;;;21.45;35.52;98236.03;4483186;32;34624;-84
2022/04/25 10:21:14;;;;;;;;;;;;;;;22.43;33.16;98241.91;4468921;32;32747;-84
2022/04/25 10:23:41;;;;;;;;;;;;;;;21.06;34.76;98234.22;4469041;32;34159;-84
2022/04/25 10:26:09;;;;;;;;;;;;;;;21.86;33.77;98242.88;4483199;32;34499;-84
2022/04/25 10:28:42;;;;;;;;;;;;;;;22.12;34.52;98230.16;4468817;32;34074;-81
2022/04/25 10:31:16;;;;;;;;;;;;;;;21.66;34.27;98250.84;4482772;32;33620;-84
2022/04/25 10:33:54;;;;;;;;;;;;;;;20.92;35.31;98242.78;4469450;32;34252;-83
2022/04/25 10:36:37;;;;;;;;;;;;;;;21.90;33.32;98235.66;4468782;32;33737;-84
2022/04/25 10:39:13;;;;;;;;;;;;;;;21.93;32.85;98247.84;4483016;32;34918;-84
2022/04/25 10:44:31;;;;;;;;;;;;;;;21.36;35.37;98259.25;4470572;32;34100;-84
2022/04/25 10:47:14;;;;;;;;;;;;;;;21.03;35.94;98251.06;4482530;32;35261;-84
2022/04/25 10:49:42;;;;;;;;;;;;;;;22.13;34.49;98247.75;4482579;32;34176;-84
2022/04/25 10:52:28;;;;;;;;;;;;;;;21.49;34.89;98261.34;4482550;32;32835;-84
2022/04/25 10:55:13;;;;;;;;;;;;;;;20.79;35.93;98257.38;4483016;31;34369;-84
2022/04/25 10:58:01;;;;;;;;;;;;;;;21.33;33.96;98269.97;4470881;32;35104;-84
2022/04/25 11:00:39;;;;;;;;;;;;;;;22.27;31.93;98265.56;4484817;32;32969;-84
2022/04/25 11:03:07;;;;;;;;;;;;;;;21.44;34.57;98271.22;4484522;32;33042;-84
2022/04/25 11:05:35;;;;;;;;;;;;;;;22.36;34.60;98266.91;4484610;32;33766;-84
2022/04/25 11:08:23;;;;;;;;;;;;;;;21.51;34.11;98280.56;4470116;32;34006;-84
2022/04/25 11:10:54;;;;;;;;;;;;;;;21.74;35.48;98283.00;4483949;32;34453;-84
2022/04/25 11:13:22;;;;;;;;;;;;;;;22.51;32.26;98274.06;4483722;32;34245;-84
2022/04/25 11:15:50;;;;;;;;;;;;;;;22.11;33.09;98278.63;4483746;32;34976;-84
2022/04/25 11:18:33;;;;;;;;;;;;;;;21.97;33.19;98281.06;4483773;31;33807;-84
2022/04/25 11:21:14;;;;;;;;;;;;;;;22.77;31.23;98281.53;4471123;32;34382;-84
2022/04/25 11:23:51;;;;;;;;;;;;;;;21.20;34.82;98296.88;4469947;32;34067;-84
2022/04/25 11:26:18;;;;;;;;;;;;;;;21.14;34.56;98293.63;4469311;32;35046;-84
2022/04/25 11:28:55;;;;;;;;;;;;;;;21.61;34.10;98300.34;4483689;32;34487;-83
2022/04/25 11:31:23;;;;;;;;;;;;;;;20.87;34.79;98302.69;4483769;32;33610;-80
2022/04/25 11:33:51;;;;;;;;;;;;;;;20.96;34.31;98301.47;4469616;32;33446;-85
2022/04/25 11:36:19;;;;;;;;;;;;;;;21.14;35.86;98301.53;4469231;32;34421;-84
2022/04/25 11:41:34;;;;;;;;;;;;;;;20.85;35.07;98302.78;4483428;32;35149;-84
2022/04/25 11:44:01;;;;;;;;;;;;;;;21.20;35.50;98300.38;4483740;32;32647;-84
2022/04/25 11:46:28;;;;;;;;;;;;;;;21.35;34.03;98317.34;4469412;32;33880;-84
2022/04/25 11:48:56;;;;;;;;;;;;;;;22.36;33.46;98312.66;4469310;32;34414;-84
2022/04/25 11:51:33;;;;;;;;;;;;;;;22.22;32.99;98313.31;4483587;32;34059;-84
2022/04/25 11:54:10;;;;;;;;;;;;;;;22.33;31.92;98315.44;4483500;31;33773;-84
2022/04/25 11:56:39;;;;;;;;;;;;;;;22.18;33.23;98316.19;4483103;32;34380;-84
2022/04/25 11:59:13;;;;;;;;;;;;;;;21.60;33.94;98325.00;4483395;31;35235;-84
2022/04/25 12:01:47;;;;;;;;;;;;;;;21.79;33.99;98325.03;4481971;32;34996;-84
2022/04/25 12:04:15;;;;;;;;;;;;;;;21.84;34.42;98323.87;4477405;32;33573;-84
2022/04/25 12:07:05;;;;;;;;;;;;;;;22.77;32.13;98320.34;4474945;32;34160;-84
2022/04/25 12:15:34;;;;;;;;;;;;;;;21.40;33.33;98328.53;4483715;32;34786;-83
2022/04/25 12:15:34;;;;;;;;;;;;;;;21.89;31.55;98325.44;4473832;32;33974;-84
2022/04/25 12:18:18;;;;;;;;;;;;;;;22.11;31.17;98320.88;4470451;32;33928;-84
2022/04/25 12:20:47;;;;;;;;;;;;;;;22.14;32.55;98330.47;4483903;32;33741;-84
2022/04/25 12:23:31;;;;;;;;;;;;;;;21.90;32.21;98322.75;4484070;32;33792;-80
2022/04/25 12:26:02;;;;;;;;;;;;;;;21.23;32.86;98323.97;4469288;32;33327;-84
2022/04/25 12:28:30;;;;;;;;;;;;;;;21.56;32.17;98328.72;4483742;32;34814;-84
2022/04/25 12:31:00;;;;;;;;;;;;;;;21.73;31.50;98320.88;4483842;32;33718;-84
2022/04/25 12:33:40;;;;;;;;;;;;;;;21.67;31.98;98334.34;4469720;32;34227;-84
2022/04/25 12:36:11;;;;;;;;;;;;;;;22.36;30.53;98347.00;4469579;32;33555;-84
2022/04/25 12:38:40;;;;;;;;;;;;;;;21.87;31.34;98333.44;4483403;32;34093;-84
2022/04/25 12:41:09;;;;;;;;;;;;;;;22.56;30.86;98319.59;4483820;32;34372;-83
2022/04/25 12:43:36;;;;;;;;;;;;;;;22.61;31.11;98320.22;4483994;32;34495;-84
2022/04/25 12:46:04;;;;;;;;;;;;;;;21.95;31.12;98336.56;4483745;32;33374;-79
2022/04/25 12:48:45;;;;;;;;;;;;;;;21.82;31.80;98328.38;4483626;32;34046;-84
2022/04/25 12:51:24;;;;;;;;;;;;;;;21.43;31.84;98338.94;4469307;32;35139;-84
2022/04/25 12:53:52;;;;;;;;;;;;;;;21.70;31.90;98336.84;4483536;32;34053;-84
2022/04/25 12:56:23;;;;;;;;;;;;;;;21.51;31.35;98346.50;4483456;32;34341;-83
2022/04/25 12:58:50;;;;;;;;;;;;;;;21.78;31.51;98350.56;4483605;32;34126;-83
2022/04/25 13:01:36;;;;;;;;;;;;;;;22.34;30.82;98349.69;4469224;32;33897;-84
2022/04/25 13:04:05;;;;;;;;;;;;;;;21.96;30.68;98354.09;4469191;32;35092;-84
2022/04/25 13:06:33;;;;;;;;;;;;;;;21.57;32.29;98354.16;4469215;32;33331;-83
2022/04/25 13:09:01;;;;;;;;;;;;;;;21.76;32.58;98351.53;4483336;32;34367;-84
2022/04/25 13:11:48;;;;;;;;;;;;;;;22.04;33.00;98344.03;4483349;32;34911;-84
2022/04/25 13:14:15;;;;;;;;;;;;;;;21.85;31.55;98336.12;4468982;32;34075;-83
2022/04/25 13:16:42;;;;;;;;;;;;;;;21.29;31.86;98336.91;4483413;32;33104;-84
2022/04/25 13:19:10;;;;;;;;;;;;;;;22.00;31.73;98345.13;4482656;32;33700;-84
2022/04/25 13:21:41;;;;;;;;;;;;;;;22.10;30.05;98333.22;4483376;32;34967;-84
2022/04/25 13:24:09;;;;;;;;;;;;;;;22.60;28.92;98339.66;4483296;32;34138;-83
2022/04/25 13:26:37;;;;;;;;;;;;;;;22.44;30.11;98343.97;4483460;32;34373;-83
2022/04/25 13:29:04;;;;;;;;;;;;;;;22.03;30.17;98344.97;4483040;32;34114;-84
2022/04/25 13:31:32;;;;;;;;;;;;;;;22.46;29.21;98352.66;4483556;32;34409;-84
2022/04/25 13:33:59;;;;;;;;;;;;;;;23.02;28.16;98346.37;4483544;32;33872;-84
2022/04/25 13:36:26;;;;;;;;;;;;;;;22.29;30.86;98343.78;4483619;32;33466;-84